Time;durP1;ratioP1;P1;durP2;ratioP2;P2;SDS_P1;SDS_P2;PMS_P1;PMS_P2;Temp;Humidity;BMP_temperature;BMP_pressure;BME280_temperature;BME280_humidity;BME280_pressure;Samples;Min_cycle;Max_cycle;Signal;HPM_P1;HPM_P2
2022/09/12 00:01:24;;;;;;;1.98;1.80;;;;;;;6.37;66.79;97358.63;6242714;28;20525;-61
2022/09/12 00:04:27;;;;;;;2.65;1.95;;;;;;;6.37;67.00;97369.97;6244368;28;20085;-60
2022/09/12 00:07:31;;;;;;;1.80;1.50;;;;;;;6.47;66.82;97366.03;6239774;28;20124;-62
2022/09/12 00:10:32;;;;;;;2.00;1.80;;;;;;;6.58;66.08;97359.53;6243348;28;20136;-61
2022/09/12 00:13:35;;;;;;;1.55;1.45;;;;;;;6.58;66.48;97365.59;6242296;28;20049;-61
2022/09/12 00:16:39;;;;;;;1.52;1.42;;;;;;;6.53;67.00;97362.31;6239291;28;20044;-62
2022/09/12 00:19:40;;;;;;;2.20;1.50;;;;;;;6.50;66.90;97360.69;6243356;28;20051;-62
2022/09/12 00:22:41;;;;;;;1.25;1.15;;;;;;;6.53;66.95;97357.09;6244354;28;20403;-62
2022/09/12 00:25:47;;;;;;;1.40;1.30;;;;;;;6.67;66.71;97351.31;6241964;28;20072;-62
2022/09/12 00:28:52;;;;;;;1.90;1.80;;;;;;;6.62;66.62;97364.56;6245194;28;20542;-62
2022/09/12 00:31:53;;;;;;;2.08;1.88;;;;;;;6.68;66.91;97364.34;6252597;28;20358;-62
2022/09/12 00:34:57;;;;;;;2.42;1.77;;;;;;;6.58;66.92;97363.00;6270483;28;20517;-62
2022/09/12 00:38:04;;;;;;;1.70;1.60;;;;;;;6.54;67.16;97369.28;6243874;28;20042;-62
2022/09/12 00:41:06;;;;;;;1.52;1.42;;;;;;;6.53;67.46;97364.94;6243892;28;20052;-62
2022/09/12 00:44:20;;;;;;;2.85;1.60;;;;;;;6.60;67.36;97366.41;6243532;28;20132;-66
2022/09/12 00:47:31;;;;;;;2.22;1.90;;;;;;;6.62;67.65;97369.78;6245748;28;20053;-62
2022/09/12 00:50:35;;;;;;;3.92;1.85;;;;;;;6.64;67.45;97367.97;6244250;28;20099;-62
2022/09/12 00:53:45;;;;;;;2.97;2.00;;;;;;;6.66;67.25;97374.00;6237854;28;20681;-63
2022/09/12 00:56:56;;;;;;;2.85;2.55;;;;;;;6.67;67.32;97367.84;6241229;28;20041;-62
2022/09/12 01:00:17;;;;;;;3.08;2.55;;;;;;;6.58;67.40;97352.53;6236719;28;20148;-62
2022/09/12 01:03:22;;;;;;;2.97;2.45;;;;;;;6.70;67.36;97372.94;6241374;28;20041;-61
2022/09/12 01:06:29;;;;;;;3.53;2.45;;;;;;;6.74;67.92;97374.53;6241015;28;20049;-61
2022/09/12 01:09:36;;;;;;;2.47;1.83;;;;;;;6.77;67.53;97373.56;6241055;28;20041;-61
2022/09/12 01:12:40;;;;;;;2.30;1.80;;;;;;;6.79;67.37;97370.84;6242116;28;20054;-61
2022/09/12 01:15:42;;;;;;;3.85;1.98;;;;;;;6.83;67.15;97377.69;6238868;28;20131;-61
2022/09/12 01:18:59;;;;;;;2.10;1.85;;;;;;;6.84;67.22;97380.22;6241944;28;20049;-61
2022/09/12 01:22:12;;;;;;;3.15;2.05;;;;;;;6.89;66.60;97380.03;6242936;28;20053;-63
2022/09/12 01:25:36;;;;;;;3.70;2.70;;;;;;;6.85;66.77;97381.06;6245087;28;20514;-62
2022/09/12 01:29:01;;;;;;;5.45;3.72;;;;;;;6.80;66.66;97385.66;6266549;28;20240;-62
2022/09/12 01:32:12;;;;;;;10.80;5.50;;;;;;;6.73;66.67;97383.28;6263625;28;20178;-61
2022/09/12 01:35:27;;;;;;;6.20;4.07;;;;;;;6.74;66.13;97379.75;6265731;28;20433;-62
2022/09/12 01:38:39;;;;;;;3.75;2.70;;;;;;;6.74;66.16;97381.53;6265231;28;20048;-61
2022/09/12 01:42:09;;;;;;;2.42;1.98;;;;;;;6.66;65.85;97384.44;6265917;28;20044;-62
2022/09/12 01:45:31;;;;;;;2.03;1.83;;;;;;;6.64;65.83;97390.66;6265032;28;20525;-62
2022/09/12 01:49:00;;;;;;;5.40;3.63;;;;;;;6.45;66.37;97398.38;6264139;28;20418;-62
2022/09/12 01:52:12;;;;;;;2.63;2.10;;;;;;;6.32;66.57;97395.41;6264755;28;20049;-62
2022/09/12 01:55:40;;;;;;;1.67;1.55;;;;;;;6.42;66.28;97393.28;6261912;28;20048;-61
2022/09/12 01:59:09;;;;;;;2.05;1.85;;;;;;;6.31;66.76;97406.75;6264814;28;20080;-62
2022/09/12 02:02:14;;;;;;;1.95;1.60;;;;;;;6.25;66.82;97407.00;6262188;28;20052;-61
2022/09/12 02:05:22;;;;;;;1.75;1.50;;;;;;;6.37;66.83;97408.28;6265851;28;20048;-62
2022/09/12 02:08:49;;;;;;;1.60;1.50;;;;;;;6.39;66.88;97412.53;6256159;28;20056;-62
2022/09/12 02:11:56;;;;;;;2.25;2.00;;;;;;;6.53;66.72;97406.78;6265549;28;20052;-62
2022/09/12 02:15:04;;;;;;;2.85;1.90;;;;;;;6.48;66.72;97408.72;6263633;28;20424;-61
2022/09/12 02:18:07;;;;;;;2.90;2.10;;;;;;;6.53;66.72;97410.22;6262408;28;20044;-65
2022/09/12 02:21:11;;;;;;;4.85;3.03;;;;;;;6.58;66.68;97412.69;6267447;28;20511;-65
2022/09/12 02:24:16;;;;;;;2.72;2.00;;;;;;;6.66;66.27;97413.22;6282870;28;20041;-65
2022/09/12 02:27:23;;;;;;;2.78;2.05;;;;;;;6.78;65.79;97404.03;6267467;28;20053;-65
2022/09/12 02:30:29;;;;;;;1.90;1.70;;;;;;;6.93;65.80;97411.22;6266216;28;20139;-65
2022/09/12 02:33:42;;;;;;;3.10;2.15;;;;;;;7.09;65.62;97414.06;6267947;28;20510;-64
2022/09/12 02:37:11;;;;;;;4.47;2.88;;;;;;;7.32;64.61;97427.94;6267332;28;20430;-66
2022/09/12 02:40:17;;;;;;;2.97;2.25;;;;;;;7.48;64.22;97428.13;6267131;28;20045;-65
2022/09/12 02:43:21;;;;;;;2.80;2.17;;;;;;;7.50;64.21;97426.28;6267413;28;20045;-65
2022/09/12 02:46:36;;;;;;;3.20;2.20;;;;;;;7.62;63.34;97425.75;6267278;28;20127;-65
2022/09/12 02:49:41;;;;;;;2.30;2.05;;;;;;;7.72;63.20;97439.28;6268314;28;20041;-65
2022/09/12 02:52:44;;;;;;;3.00;2.45;;;;;;;7.69;63.63;97436.81;6267108;28;20057;-65
2022/09/12 02:55:53;;;;;;;2.78;1.80;;;;;;;7.79;63.54;97427.63;6266667;28;20049;-65
2022/09/12 02:59:03;;;;;;;2.03;1.80;;;;;;;7.92;62.92;97418.28;6267352;28;20049;-65
2022/09/12 03:02:06;;;;;;;2.00;1.80;;;;;;;8.09;62.88;97426.22;6265649;28;20051;-65
2022/09/12 03:05:22;;;;;;;2.78;2.35;;;;;;;8.23;62.58;97428.19;6265634;28;20431;-66
2022/09/12 03:08:42;;;;;;;1.93;1.80;;;;;;;8.44;62.05;97436.88;6267531;28;20064;-65
2022/09/12 03:12:09;;;;;;;2.72;1.98;;;;;;;8.59;61.64;97429.19;6266602;28;20638;-64
2022/09/12 03:15:26;;;;;;;2.53;1.77;;;;;;;8.73;60.92;97442.50;6263162;28;20584;-66
2022/09/12 03:18:48;;;;;;;2.15;1.92;;;;;;;8.90;60.47;97434.66;6265555;28;20060;-66
2022/09/12 03:22:02;;;;;;;1.67;1.40;;;;;;;9.03;60.16;97439.28;6263039;28;20512;-66
2022/09/12 03:25:16;;;;;;;3.95;1.70;;;;;;;9.08;59.64;97437.28;6266159;28;20041;-65
2022/09/12 03:28:19;;;;;;;2.47;2.05;;;;;;;9.07;59.60;97432.97;6266233;28;20133;-65
2022/09/12 03:31:21;;;;;;;2.37;2.17;;;;;;;9.17;59.47;97434.19;6266716;28;20190;-65
2022/09/12 03:34:25;;;;;;;4.72;2.72;;;;;;;9.31;58.67;97436.97;6269203;28;20059;-65
2022/09/12 03:37:26;;;;;;;3.95;3.47;;;;;;;9.41;58.75;97438.22;6265086;28;20041;-65
2022/09/12 03:40:30;;;;;;;3.70;2.78;;;;;;;9.46;58.75;97437.16;6267990;28;20057;-65
2022/09/12 03:43:38;;;;;;;2.83;2.08;;;;;;;9.61;58.03;97436.34;6267917;28;20434;-65
2022/09/12 03:46:40;;;;;;;2.85;2.45;;;;;;;9.65;58.05;97443.13;6268810;28;20450;-65
2022/09/12 03:49:45;;;;;;;2.05;1.75;;;;;;;9.76;58.19;97440.78;6266176;28;20532;-65
2022/09/12 03:52:51;;;;;;;2.38;2.15;;;;;;;9.99;57.40;97446.59;6266982;28;20045;-64
2022/09/12 03:55:55;;;;;;;5.15;3.65;;;;;;;10.09;57.20;97438.16;6268106;28;20053;-65
2022/09/12 03:58:56;;;;;;;5.28;3.55;;;;;;;10.08;57.20;97438.25;6267219;28;20048;-65
2022/09/12 04:01:58;;;;;;;3.95;3.13;;;;;;;10.19;57.45;97449.03;6268210;28;20220;-65
2022/09/12 04:05:01;;;;;;;3.78;2.20;;;;;;;10.50;56.85;97447.38;6269822;28;20037;-66
2022/09/12 04:08:04;;;;;;;3.17;2.35;;;;;;;10.70;56.14;97444.50;6268184;28;20060;-64
2022/09/12 04:11:09;;;;;;;2.20;2.00;;;;;;;10.86;55.92;97443.63;6260980;28;20094;-65
2022/09/12 04:14:14;;;;;;;3.38;2.70;;;;;;;11.05;55.25;97453.94;6268124;28;20507;-65
2022/09/12 04:17:17;;;;;;;3.33;2.50;;;;;;;11.13;55.31;97457.84;6268144;28;20527;-65
2022/09/12 04:20:19;;;;;;;2.20;1.95;;;;;;;11.43;54.55;97452.53;6260496;28;20395;-66
2022/09/12 04:23:21;;;;;;;3.45;2.50;;;;;;;11.52;54.40;97448.56;6266402;28;20130;-65
2022/09/12 04:26:22;;;;;;;3.67;2.72;;;;;;;11.60;54.22;97448.91;6266134;28;20045;-67
2022/09/12 04:29:28;;;;;;;2.60;2.00;;;;;;;11.83;53.54;97451.94;6266622;28;22086;-66
2022/09/12 04:32:31;;;;;;;5.15;2.20;;;;;;;11.46;54.30;97451.53;6267509;28;20045;-65
2022/09/12 04:35:37;;;;;;;3.28;2.58;;;;;;;11.26;54.93;97441.31;6267359;28;20048;-66
2022/09/12 04:38:41;;;;;;;2.78;2.40;;;;;;;11.06;55.23;97445.94;6245310;28;20041;-64
2022/09/12 04:41:46;;;;;;;2.63;2.30;;;;;;;10.74;56.47;97450.44;6250565;28;20056;-65
2022/09/12 04:44:48;;;;;;;3.78;2.78;;;;;;;10.71;56.77;97440.91;6244291;28;20140;-65
2022/09/12 04:47:51;;;;;;;3.15;2.20;;;;;;;10.92;55.65;97444.09;6260598;28;20175;-65
2022/09/12 04:50:55;;;;;;;4.32;2.85;;;;;;;10.85;55.82;97447.19;6251119;28;20061;-65
2022/09/12 04:54:02;;;;;;;4.05;2.70;;;;;;;11.05;55.38;97448.69;6254653;28;20063;-66
2022/09/12 04:57:04;;;;;;;3.50;3.05;;;;;;;11.57;53.88;97451.72;6270043;28;20049;-65
2022/09/12 05:00:06;;;;;;;4.00;2.80;;;;;;;11.88;52.69;97460.47;6265846;28;20148;-65
2022/09/12 05:03:07;;;;;;;3.20;2.90;;;;;;;12.21;52.42;97452.28;6266150;28;20051;-66
2022/09/12 05:06:18;;;;;;;3.40;2.63;;;;;;;12.79;50.97;97459.16;6266608;28;20045;-66
2022/09/12 05:09:21;;;;;;;3.28;2.70;;;;;;;13.43;49.41;97464.66;6262254;28;20466;-65
2022/09/12 05:12:23;;;;;;;2.95;2.38;;;;;;;14.00;48.13;97470.56;6267891;28;20045;-65
2022/09/12 05:15:27;;;;;;;4.53;2.50;;;;;;;14.51;46.66;97468.69;6255148;28;20431;-64
2022/09/12 05:18:31;;;;;;;3.47;2.85;;;;;;;15.23;44.98;97462.66;6257359;28;20056;-64
2022/09/12 05:21:35;;;;;;;3.35;2.03;;;;;;;16.05;42.96;97479.44;6263269;28;20187;-64
2022/09/12 05:25:04;;;;;;;4.78;3.03;;;;;;;16.56;41.72;97463.03;6263263;28;20041;-65
2022/09/12 05:28:08;;;;;;;2.45;2.10;;;;;;;17.70;39.58;97472.34;6264574;28;20041;-65
2022/09/12 05:31:16;;;;;;;2.90;2.30;;;;;;;18.34;37.84;97474.88;6252356;28;20080;-66
2022/09/12 05:34:18;;;;;;;2.67;2.03;;;;;;;18.10;37.72;97469.00;6264240;28;20186;-64
2022/09/12 05:37:19;;;;;;;2.70;2.25;;;;;;;17.49;38.92;97485.63;6260630;28;20048;-66
2022/09/12 05:40:20;;;;;;;3.03;2.58;;;;;;;16.89;39.60;97479.06;6263905;28;20045;-66
2022/09/12 05:43:28;;;;;;;2.80;2.13;;;;;;;16.12;41.02;97474.47;6259132;28;20127;-65
2022/09/12 05:46:34;;;;;;;3.03;2.13;;;;;;;15.59;42.49;97480.22;6274826;28;20159;-65
2022/09/12 05:49:39;;;;;;;2.50;1.90;;;;;;;15.17;43.53;97479.84;6260154;28;20425;-64
2022/09/12 05:52:44;;;;;;;5.55;2.97;;;;;;;14.90;43.99;97479.22;6261211;28;20048;-65
2022/09/12 05:55:46;;;;;;;2.88;1.85;;;;;;;14.57;44.75;97475.38;6263913;28;20072;-64
2022/09/12 05:58:53;;;;;;;5.22;2.88;;;;;;;14.44;45.15;97471.91;6253502;28;20131;-65
2022/09/12 06:01:54;;;;;;;2.95;2.28;;;;;;;14.48;45.17;97473.34;6265582;28;20194;-65
2022/09/12 06:04:58;;;;;;;3.55;2.25;;;;;;;14.77;44.83;97473.94;6262370;28;20044;-64
2022/09/12 06:08:02;;;;;;;1.80;1.50;;;;;;;15.29;41.90;97475.44;6258856;28;20052;-65
2022/09/12 06:11:18;;;;;;;3.78;1.45;;;;;;;15.04;41.98;97466.63;6260368;28;20057;-65
2022/09/12 06:14:21;;;;;;;1.83;1.30;;;;;;;14.83;42.17;97473.50;6262105;28;20536;-64
2022/09/12 06:17:25;;;;;;;2.45;1.23;;;;;;;14.81;42.30;97470.13;6260422;28;20482;-65
2022/09/12 06:20:26;;;;;;;2.72;1.40;;;;;;;15.06;41.91;97466.53;6263470;28;20530;-65
2022/09/12 06:23:28;;;;;;;1.77;1.17;;;;;;;15.07;41.06;97441.72;6259765;28;20080;-64
2022/09/12 06:26:32;;;;;;;;;;;;;;;15.30;41.59;97470.97;6262014;28;20049;-63
2022/09/12 06:29:36;;;;;;;1.42;0.88;;;;;;;15.26;41.63;97468.56;6260294;28;20019;-65
2022/09/12 06:32:38;;;;;;;2.67;1.95;;;;;;;15.56;41.46;97475.16;6254171;28;20041;-64
2022/09/12 06:35:39;;;;;;;2.58;1.30;;;;;;;15.44;41.49;97473.44;6261233;28;20056;-65
2022/09/12 06:38:50;;;;;;;1.98;1.45;;;;;;;15.27;42.28;97472.06;6262781;28;20037;-65
2022/09/12 06:41:52;;;;;;;1.83;1.23;;;;;;;15.22;42.16;97475.03;6262863;28;20049;-65
2022/09/12 06:44:53;;;;;;;1.45;1.10;;;;;;;15.37;42.09;97473.06;6255797;28;20065;-65
2022/09/12 06:47:55;;;;;;;1.35;0.98;;;;;;;15.73;41.81;97478.38;6262432;28;20639;-63
2022/09/12 06:51:08;;;;;;;1.20;1.10;;;;;;;16.01;41.72;97485.91;6254036;28;20053;-65
2022/09/12 06:54:14;;;;;;;1.60;0.90;;;;;;;15.90;41.44;97475.28;6261552;28;20135;-65
2022/09/12 06:57:16;;;;;;;1.05;0.93;;;;;;;15.84;41.58;97471.28;6263615;28;20546;-64
2022/09/12 07:00:18;;;;;;;1.33;1.23;;;;;;;15.90;41.62;97475.28;6263454;28;20053;-64
2022/09/12 07:03:24;;;;;;;1.67;1.13;;;;;;;16.15;40.96;97466.28;6256965;28;20612;-64
2022/09/12 07:06:33;;;;;;;0.98;0.70;;;;;;;16.34;40.31;97473.66;6265009;28;20052;-64
2022/09/12 07:09:37;;;;;;;2.08;1.08;;;;;;;16.28;40.37;97467.00;6267515;28;20135;-64
2022/09/12 07:12:41;;;;;;;1.05;0.90;;;;;;;16.10;41.09;97466.63;6268282;28;20049;-64
2022/09/12 07:15:45;;;;;;;1.58;0.77;;;;;;;16.16;40.86;97460.84;6252751;28;20135;-65
2022/09/12 07:18:57;;;;;;;1.65;1.00;;;;;;;15.89;41.51;97460.34;6262122;28;20045;-64
2022/09/12 07:22:00;;;;;;;1.77;1.23;;;;;;;15.63;42.31;97451.69;6265580;28;20045;-65
2022/09/12 07:25:02;;;;;;;2.78;1.25;;;;;;;15.52;41.84;97455.16;6266460;28;20116;-65
2022/09/12 07:28:07;;;;;;;1.23;1.00;;;;;;;15.45;42.34;97459.22;6254892;28;20045;-65
2022/09/12 07:31:16;;;;;;;1.88;1.30;;;;;;;15.89;42.19;97457.69;6258503;28;20072;-65
2022/09/12 07:34:22;;;;;;;2.30;1.67;;;;;;;16.25;40.92;97467.25;6264706;28;20057;-64
2022/09/12 07:37:29;;;;;;;1.55;1.13;;;;;;;15.97;41.44;97463.25;6258949;28;20565;-65
2022/09/12 07:40:31;;;;;;;0.88;0.88;;;;;;;16.04;41.29;97455.63;6267855;28;20047;-65
2022/09/12 07:43:32;;;;;;;2.55;1.55;;;;;;;16.62;40.13;97461.69;6265963;28;20043;-64
2022/09/12 07:46:37;;;;;;;2.63;2.17;;;;;;;17.37;39.01;97458.22;6262010;28;20085;-63
2022/09/12 07:49:41;;;;;;;2.78;1.88;;;;;;;19.97;35.12;97460.25;6262914;28;20044;-64
2022/09/12 07:52:44;;;;;;;1.35;1.17;;;;;;;24.95;27.92;97464.00;6263056;28;20057;-65
2022/09/12 07:55:53;;;;;;;1.20;0.93;;;;;;;28.23;23.72;97465.84;6267238;28;20053;-65
2022/09/12 07:58:55;;;;;;;2.35;1.33;;;;;;;27.82;23.90;97458.41;6260934;28;20056;-65
2022/09/12 08:01:59;;;;;;;0.90;0.90;;;;;;;25.63;26.04;97458.91;6260947;28;20041;-64
2022/09/12 08:05:03;;;;;;;0.88;0.75;;;;;;;23.79;27.83;97455.53;6265631;28;20041;-64
2022/09/12 08:08:07;;;;;;;1.60;1.40;;;;;;;23.18;28.62;97446.88;6263695;28;20061;-65
2022/09/12 08:11:14;;;;;;;1.00;0.88;;;;;;;23.41;28.65;97452.44;6257185;28;20040;-65
2022/09/12 08:14:16;;;;;;;1.65;0.80;;;;;;;25.05;26.78;97451.19;6259930;28;20056;-63
2022/09/12 08:17:20;;;;;;;0.52;0.52;;;;;;;27.61;23.75;97435.75;6264312;28;20041;-64
2022/09/12 08:20:26;;;;;;;1.75;1.00;;;;;;;28.26;23.08;97451.91;6259998;28;20037;-64
2022/09/12 08:23:32;;;;;;;1.20;0.88;;;;;;;26.60;23.81;97449.09;6264247;28;20057;-64
2022/09/12 08:26:34;;;;;;;1.35;1.00;;;;;;;26.74;24.15;97444.69;6266878;28;20059;-64
2022/09/12 08:29:36;;;;;;;1.48;0.60;;;;;;;27.64;23.51;97445.34;6258973;28;20053;-65
2022/09/12 08:32:43;;;;;;;0.98;0.85;;;;;;;27.69;23.05;97453.72;6262290;28;20437;-65
2022/09/12 08:35:50;;;;;;;1.55;0.85;;;;;;;28.97;21.26;97449.84;6262236;28;20136;-64
2022/09/12 08:38:59;;;;;;;0.63;0.50;;;;;;;28.37;22.09;97457.59;6263509;28;20045;-64
2022/09/12 08:42:05;;;;;;;2.05;1.10;;;;;;;26.43;23.26;97445.69;6266308;28;20036;-65
2022/09/12 08:45:45;;;;;;;1.60;0.95;;;;;;;26.41;23.53;97441.50;6261986;28;20069;-64
2022/09/12 08:48:47;;;;;;;1.02;0.80;;;;;;;24.91;25.32;97443.84;6236722;28;20065;-64
2022/09/12 08:51:52;;;;;;;2.08;0.93;;;;;;;23.20;27.53;97440.34;6263888;28;20041;-64
2022/09/12 08:54:55;;;;;;;1.33;0.87;;;;;;;21.38;29.79;97438.63;6258508;28;20045;-64
2022/09/12 08:58:00;;;;;;;1.65;0.90;;;;;;;20.26;31.38;97429.91;6260771;28;20045;-65
2022/09/12 09:01:14;;;;;;;1.92;0.80;;;;;;;19.56;32.35;97429.34;6262797;28;20184;-65
2022/09/12 09:04:54;;;;;;;1.70;0.90;;;;;;;19.59;32.43;97421.91;6261209;28;20049;-65
2022/09/12 09:08:18;;;;;;;2.00;0.68;;;;;;;19.35;31.89;97417.00;6253511;28;20049;-64
2022/09/12 09:11:48;;;;;;;0.80;0.70;;;;;;;18.71;33.11;97434.34;6261923;28;20053;-64
2022/09/12 09:15:20;;;;;;;1.77;1.00;;;;;;;18.18;34.14;97437.22;6255678;28;20089;-64
2022/09/12 09:18:31;;;;;;;2.03;0.60;;;;;;;17.89;35.65;97437.03;6263511;28;20051;-64
2022/09/12 09:21:58;;;;;;;0.77;0.60;;;;;;;19.18;33.99;97447.91;6258496;28;20513;-64
2022/09/12 09:25:05;;;;;;;0.57;0.40;;;;;;;19.12;33.63;97452.94;6267452;28;20136;-64
2022/09/12 09:28:16;;;;;;;0.60;0.50;;;;;;;22.02;30.25;97435.75;6263377;28;20068;-64
2022/09/12 09:31:21;;;;;;;0.30;0.30;;;;;;;25.33;25.61;97441.78;6264835;28;20060;-64
2022/09/12 09:34:30;;;;;;;0.70;0.35;;;;;;;27.76;23.02;97460.81;6260956;28;20135;-64
2022/09/12 09:37:42;;;;;;;0.25;0.25;;;;;;;29.12;21.23;97454.28;6260560;28;20044;-65
2022/09/12 09:41:20;;;;;;;0.57;0.40;;;;;;;30.07;20.34;97468.69;6259493;28;20594;-64
2022/09/12 09:44:22;;;;;;;0.85;0.20;;;;;;;29.98;20.39;97458.03;6252897;28;20055;-64
2022/09/12 09:47:24;;;;;;;0.35;0.28;;;;;;;30.45;19.29;97462.63;6260134;28;20135;-64
2022/09/12 09:50:30;;;;;;;0.50;0.40;;;;;;;29.98;20.04;97466.19;6260706;28;20041;-64
2022/09/12 09:53:45;;;;;;;0.20;0.20;;;;;;;29.22;20.73;97460.19;6263760;28;20525;-64
2022/09/12 09:56:49;;;;;;;0.35;0.20;;;;;;;28.94;20.91;97462.94;6264458;28;20037;-64
2022/09/12 09:59:52;;;;;;;0.30;0.15;;;;;;;29.07;20.33;97453.03;6263016;28;20041;-64
2022/09/12 10:03:00;;;;;;;0.52;0.38;;;;;;;29.13;20.87;97462.25;6260709;28;20033;-64
2022/09/12 10:06:25;;;;;;;0.22;0.20;;;;;;;30.01;20.46;97464.06;6263563;28;20045;-64
2022/09/12 10:09:33;;;;;;;0.70;0.60;;;;;;;29.67;20.52;97461.34;6263493;28;20413;-64
2022/09/12 10:12:35;;;;;;;0.35;0.35;;;;;;;27.69;22.29;97459.94;6268326;28;20426;-64
2022/09/12 10:15:37;;;;;;;0.45;0.20;;;;;;;26.10;24.27;97447.06;6262602;28;20067;-64
2022/09/12 10:18:41;;;;;;;0.43;0.25;;;;;;;27.52;22.92;97464.78;6261389;28;20041;-63
2022/09/12 10:21:53;;;;;;;0.20;0.20;;;;;;;30.11;20.52;97459.06;6266242;28;20446;-63
2022/09/12 10:24:59;;;;;;;0.30;0.20;;;;;;;30.97;19.35;97458.13;6268477;28;20057;-63
2022/09/12 10:28:03;;;;;;;0.20;0.20;;;;;;;30.84;18.55;97465.28;6255139;28;20034;-64
2022/09/12 10:31:14;;;;;;;0.30;0.10;;;;;;;30.59;18.31;97461.56;6260002;28;20053;-65
2022/09/12 10:34:31;;;;;;;1.00;0.30;;;;;;;30.85;18.19;97456.06;6264167;28;20179;-64
2022/09/12 10:37:38;;;;;;;0.80;0.10;;;;;;;31.11;17.34;97443.41;6264288;28;20053;-64
2022/09/12 10:40:54;;;;;;;0.25;0.10;;;;;;;31.79;17.38;97450.16;6265626;28;20040;-66
2022/09/12 10:44:06;;;;;;;0.17;0.17;;;;;;;30.46;17.64;97456.13;6259009;28;20462;-64
2022/09/12 10:47:30;;;;;;;0.22;0.20;;;;;;;29.73;18.30;97455.09;6251718;28;20083;-64
2022/09/12 10:50:39;;;;;;;1.10;0.50;;;;;;;27.81;19.65;97435.94;6258195;28;20052;-64
2022/09/12 10:53:48;;;;;;;1.15;0.80;;;;;;;25.14;22.50;97429.56;6264309;28;20041;-65
2022/09/12 10:56:58;;;;;;;2.03;0.60;;;;;;;23.80;24.85;97435.72;6262856;28;20071;-64
2022/09/12 11:00:16;;;;;;;0.60;0.40;;;;;;;22.78;25.49;97429.63;6268086;28;20041;-65
2022/09/12 11:03:28;;;;;;;0.70;0.40;;;;;;;21.23;27.77;97426.72;6252559;28;20053;-64
2022/09/12 11:07:09;;;;;;;1.02;0.60;;;;;;;21.11;28.09;97433.28;6256365;28;20057;-64
2022/09/12 11:10:53;;;;;;;1.75;1.00;;;;;;;21.09;28.21;97436.13;6260329;28;20758;-64
2022/09/12 11:14:22;;;;;;;0.65;0.50;;;;;;;21.87;27.42;97425.63;6260682;28;20053;-64
2022/09/12 11:17:31;;;;;;;0.57;0.30;;;;;;;23.89;24.77;97429.31;6253514;28;20045;-64
2022/09/12 11:21:17;;;;;;;0.60;0.30;;;;;;;26.24;22.28;97431.91;6258565;28;20041;-65
2022/09/12 11:24:47;;;;;;;0.20;0.20;;;;;;;27.12;21.21;97444.56;6264005;28;20040;-64
2022/09/12 11:27:51;;;;;;;0.10;0.10;;;;;;;27.19;20.82;97440.09;6257074;28;20053;-64
2022/09/12 11:30:58;;;;;;;0.80;0.68;;;;;;;27.14;20.61;97437.06;6261641;28;20140;-64
2022/09/12 11:34:07;;;;;;;0.40;0.20;;;;;;;27.52;20.21;97435.03;6267593;28;20526;-64
2022/09/12 11:37:29;;;;;;;0.52;0.00;;;;;;;28.15;19.58;97439.75;6254220;28;20041;-64
2022/09/12 11:40:41;;;;;;;0.10;0.10;;;;;;;28.48;18.63;97431.91;6265168;28;20049;-66
2022/09/12 11:44:10;;;;;;;0.20;0.20;;;;;;;28.20;19.17;97440.84;6258358;28;20049;-65
2022/09/12 11:47:13;;;;;;;0.50;0.30;;;;;;;27.04;20.10;97444.66;6253378;28;20546;-64
2022/09/12 11:50:20;;;;;;;;;;;;;;;27.43;20.44;97432.63;6262581;28;20135;-67
2022/09/12 11:53:28;;;;;;;0.30;0.25;;;;;;;26.98;20.57;97430.06;6256327;28;19968;-71
2022/09/12 11:56:29;;;;;;;0.35;0.35;;;;;;;27.26;20.51;97427.50;6262819;28;20526;-70
2022/09/12 12:00:07;;;;;;;0.40;0.30;;;;;;;26.61;20.94;97422.91;6255136;28;20135;-67
2022/09/12 12:03:35;;;;;;;0.80;0.20;;;;;;;23.59;24.44;97423.59;6270546;28;20506;-67
2022/09/12 12:07:09;;;;;;;0.40;0.38;;;;;;;21.19;27.30;97417.31;6270443;28;20681;-67
2022/09/12 12:10:35;;;;;;;1.95;0.47;;;;;;;19.72;29.67;97422.47;6268918;28;20049;-67
2022/09/12 12:14:06;;;;;;;0.28;0.20;;;;;;;18.83;31.02;97411.94;6270478;28;20055;-67
2022/09/12 12:17:18;;;;;;;0.75;0.45;;;;;;;18.19;31.83;97412.25;6269026;28;20045;-67
2022/09/12 12:20:22;;;;;;;1.23;0.77;;;;;;;17.80;32.63;97422.72;6270774;28;20041;-68
2022/09/12 12:23:31;;;;;;;1.98;1.08;;;;;;;17.53;33.97;97422.38;6270274;28;20053;-68
2022/09/12 12:26:41;;;;;;;1.10;0.85;;;;;;;17.15;35.87;97421.09;6270318;28;20049;-69
2022/09/12 12:29:44;;;;;;;1.33;0.90;;;;;;;16.63;37.25;97414.69;6269727;28;20210;-68
2022/09/12 12:32:48;;;;;;;1.83;0.80;;;;;;;16.04;38.45;97408.69;6269855;28;20041;-68
2022/09/12 12:35:59;;;;;;;0.43;0.43;;;;;;;15.65;39.42;97418.78;6269686;28;20803;-68
2022/09/12 12:39:32;;;;;;;0.93;0.90;;;;;;;15.63;39.41;97420.69;6270158;28;20039;-68
2022/09/12 12:42:37;;;;;;;1.52;1.08;;;;;;;16.80;37.94;97419.50;6269875;28;20122;-69
2022/09/12 12:45:57;;;;;;;1.10;0.82;;;;;;;18.09;35.52;97411.41;6269304;28;20037;-69
2022/09/12 12:49:26;;;;;;;1.38;1.00;;;;;;;19.34;33.74;97417.16;6269405;28;20044;-70
2022/09/12 12:52:31;;;;;;;2.05;1.10;;;;;;;20.01;32.41;97429.56;6269339;28;20130;-70
2022/09/12 12:55:44;;;;;;;11.25;6.43;;;;;;;20.12;32.00;97425.88;6268331;28;20055;-69
2022/09/12 12:58:46;;;;;;;6.40;3.95;;;;;;;19.91;31.88;97418.09;6269640;28;20674;-68
2022/09/12 13:01:54;;;;;;;4.70;2.88;;;;;;;19.35;32.32;97416.16;6269312;28;20132;-68
2022/09/12 13:05:05;;;;;;;2.20;1.40;;;;;;;18.84;33.22;97418.94;6269332;28;20445;-69
2022/09/12 13:08:28;;;;;;;3.83;0.80;;;;;;;17.94;35.12;97416.19;6268011;28;20045;-68
2022/09/12 13:11:39;;;;;;;0.88;0.60;;;;;;;17.09;36.49;97418.94;6268524;28;20033;-69
2022/09/12 13:14:58;;;;;;;0.60;0.40;;;;;;;16.54;37.32;97417.13;6268303;28;20048;-69
2022/09/12 13:18:42;;;;;;;0.50;0.50;;;;;;;16.25;37.99;97426.56;6269471;28;20041;-69
2022/09/12 13:22:06;;;;;;;0.50;0.45;;;;;;;15.75;39.09;97432.19;6242130;28;20063;-68
2022/09/12 13:25:29;;;;;;;1.15;0.80;;;;;;;15.26;39.91;97428.78;6244532;28;20199;-69
2022/09/12 13:28:34;;;;;;;0.60;0.60;;;;;;;14.79;41.25;97419.88;6257185;28;20045;-68
2022/09/12 13:31:39;;;;;;;0.95;0.60;;;;;;;14.42;42.15;97420.84;6267827;28;20140;-70
2022/09/12 13:35:12;;;;;;;0.57;0.52;;;;;;;14.18;42.59;97424.25;6268465;28;20051;-67
2022/09/12 13:38:51;;;;;;;1.13;0.77;;;;;;;13.92;43.48;97429.59;6267655;28;20045;-69
2022/09/12 13:42:06;;;;;;;1.45;1.10;;;;;;;13.70;44.26;97421.44;6268407;28;20090;-69
2022/09/12 13:45:38;;;;;;;2.25;1.30;;;;;;;13.42;44.67;97425.97;6266621;28;20128;-70
2022/09/12 13:48:41;;;;;;;4.75;0.90;;;;;;;13.23;45.44;97412.28;6247154;28;20049;-70
2022/09/12 13:51:50;;;;;;;3.08;1.80;;;;;;;13.24;45.56;97425.38;6253554;28;20495;-69
2022/09/12 13:54:57;;;;;;;3.30;1.60;;;;;;;13.16;45.82;97429.47;6265557;28;20045;-61
2022/09/12 13:58:04;;;;;;;1.65;0.90;;;;;;;13.10;46.10;97424.59;6263685;28;20055;-61
2022/09/12 14:01:09;;;;;;;0.90;0.65;;;;;;;13.07;46.47;97435.38;6265999;28;20033;-60
2022/09/12 14:07:51;;;;;;;1.77;1.38;;;;;;;13.07;46.61;97440.66;6267375;28;20119;-60
2022/09/12 14:10:53;;;;;;;9.77;6.15;;;;;;;13.11;46.58;97436.88;6268252;28;20426;-60
2022/09/12 14:13:55;;;;;;;9.48;5.28;;;;;;;13.08;47.10;97437.06;6267759;28;20041;-60
2022/09/12 14:17:00;;;;;;;10.55;6.60;;;;;;;13.14;47.70;97441.97;6267935;28;20127;-60
2022/09/12 14:20:31;;;;;;;4.25;3.10;;;;;;;13.13;47.16;97456.09;6267909;28;20079;-61
2022/09/12 14:23:35;;;;;;;22.05;13.57;;;;;;;12.97;47.18;97457.13;6257815;28;20132;-69
2022/09/12 14:26:39;;;;;;;3.92;2.67;;;;;;;12.90;46.57;97450.53;6264019;28;20080;-61
2022/09/12 14:29:47;;;;;;;2.45;1.63;;;;;;;12.85;47.43;97457.91;6264927;28;20037;-60
2022/09/12 14:33:10;;;;;;;1.35;1.00;;;;;;;12.68;48.29;97460.78;6264483;28;20510;-64
2022/09/12 14:36:23;;;;;;;0.95;0.50;;;;;;;12.48;48.99;97455.00;6264538;28;20041;-64
2022/09/12 14:39:39;;;;;;;1.88;1.58;;;;;;;12.22;49.77;97453.13;6264542;28;20047;-64
2022/09/12 14:42:45;;;;;;;0.65;0.60;;;;;;;12.45;48.28;97457.81;6263612;28;20507;-70
2022/09/12 14:46:12;;;;;;;;;;;;;;;12.27;47.94;97458.97;6255367;28;20076;-65
2022/09/12 14:49:26;;;;;;;0.60;0.60;;;;;;;12.13;47.46;97460.66;6251001;28;19917;-65
2022/09/12 14:52:34;;;;;;;1.17;0.95;;;;;;;11.86;47.97;97459.69;6260617;28;20068;-65
2022/09/12 14:55:52;;;;;;;1.20;0.82;;;;;;;11.94;48.38;97475.91;6258280;28;20048;-64
2022/09/12 14:59:32;;;;;;;0.73;0.70;;;;;;;11.93;48.50;97483.94;6257264;28;20456;-68
2022/09/12 15:02:39;;;;;;;2.33;1.30;;;;;;;11.89;49.63;97499.09;6255103;28;20512;-67